Terminal Aerodrome Forecast
Issued by NWS

Home | Current Version | Previous Version | Text Only | Print | Product List | Glossary On
Versions: 1 2 3 4 5 6 7 8 9 10 11 12 13 14 15
000
FTUS45 KABQ 042300
TAFFMN
TAF
KFMN 042340Z 0500/0524 14011KT P6SM VCSH SCT040 BKN100
     FM050300 11011KT P6SM VCTS BKN040CB
     FM050600 10007KT P6SM VCSH SCT040 BKN100
     FM051900 21010G20KT P6SM VCSH SCT040 BKN100=

USA.gov is the U.S. government's official web portal to all federal, state and local government web resources and services.